Time;durP1;ratioP1;P1;durP2;ratioP2;P2;SDS_P1;SDS_P2;PMS_P1;PMS_P2;Temp;Humidity;BMP_temperature;BMP_pressure;BME280_temperature;BME280_humidity;BME280_pressure;Samples;Min_cycle;Max_cycle;Signal;HPM_P1;HPM_P2
2021/03/13 00:00:25;;;;;;;6.47;3.63;;;;;;;;;;4997153;28;20018;-69
2021/03/13 00:02:51;;;;;;;5.43;3.40;;;;;;;;;;4997215;28;20483;-70
2021/03/13 00:05:22;;;;;;;4.53;2.30;;;;;;;;;;4997483;28;20029;-70
2021/03/13 00:07:48;;;;;;;4.20;2.63;;;;;;;;;;4997110;28;20029;-70
2021/03/13 00:10:14;;;;;;;9.38;3.13;;;;;;;;;;5014565;28;20089;-70
2021/03/13 00:12:40;;;;;;;4.18;2.47;;;;;;;;;;5014526;28;20018;-70
2021/03/13 00:15:07;;;;;;;6.22;2.40;;;;;;;;;;4997105;28;20125;-69
2021/03/13 00:17:33;;;;;;;3.65;2.72;;;;;;;;;;4998000;28;20419;-70
2021/03/13 00:19:59;;;;;;;4.28;2.90;;;;;;;;;;5014248;28;20068;-71
2021/03/13 00:22:25;;;;;;;3.90;2.90;;;;;;;;;;5014787;28;20100;-70
2021/03/13 00:24:51;;;;;;;5.35;3.15;;;;;;;;;;5014702;28;20092;-72
2021/03/13 00:27:18;;;;;;;4.93;2.22;;;;;;;;;;4996512;28;20109;-72
2021/03/13 00:29:44;;;;;;;4.63;2.38;;;;;;;;;;4997146;28;20551;-71
2021/03/13 00:32:10;;;;;;;3.33;2.38;;;;;;;;;;5014549;28;20347;-72
2021/03/13 00:34:36;;;;;;;2.83;2.10;;;;;;;;;;4996573;28;20037;-72
2021/03/13 00:37:02;;;;;;;3.50;2.53;;;;;;;;;;4996458;28;20533;-72
2021/03/13 00:39:28;;;;;;;2.63;1.13;;;;;;;;;;4996648;28;20367;-72
2021/03/13 00:41:54;;;;;;;2.72;1.63;;;;;;;;;;5014129;28;20351;-71
2021/03/13 00:44:20;;;;;;;3.65;1.52;;;;;;;;;;5014350;28;20021;-71
2021/03/13 00:46:46;;;;;;;3.47;1.48;;;;;;;;;;4996759;28;20025;-71
2021/03/13 00:49:13;;;;;;;4.22;2.08;;;;;;;;;;4996580;28;20025;-70
2021/03/13 00:51:39;;;;;;;4.22;1.50;;;;;;;;;;5013957;28;20022;-70
2021/03/13 00:54:05;;;;;;;5.38;1.90;;;;;;;;;;5014232;28;20029;-70
2021/03/13 00:56:31;;;;;;;3.28;2.28;;;;;;;;;;4996267;28;20022;-71
2021/03/13 00:58:57;;;;;;;1.95;1.80;;;;;;;;;;5014203;28;20120;-70
2021/03/13 01:01:23;;;;;;;3.65;2.50;;;;;;;;;;4996292;28;20024;-71
2021/03/13 01:03:49;;;;;;;4.25;1.85;;;;;;;;;;4996276;28;20050;-71
2021/03/13 01:06:15;;;;;;;3.97;2.03;;;;;;;;;;4996575;28;20045;-71
2021/03/13 01:08:42;;;;;;;5.75;2.40;;;;;;;;;;5014040;28;20076;-71
2021/03/13 01:11:08;;;;;;;4.25;2.65;;;;;;;;;;4996530;28;20398;-71
2021/03/13 01:13:34;;;;;;;7.00;3.08;;;;;;;;;;4996377;28;20026;-71
2021/03/13 01:16:00;;;;;;;10.07;2.72;;;;;;;;;;5013564;28;20021;-71
2021/03/13 01:18:26;;;;;;;9.10;3.10;;;;;;;;;;4996185;28;20022;-72
2021/03/13 01:20:52;;;;;;;8.18;3.03;;;;;;;;;;5013840;28;20029;-71
2021/03/13 01:23:19;;;;;;;5.10;2.25;;;;;;;;;;5013536;28;20041;-70
2021/03/13 01:25:45;;;;;;;8.00;3.10;;;;;;;;;;5013942;28;20014;-69
2021/03/13 01:28:11;;;;;;;8.73;3.03;;;;;;;;;;4996356;28;20108;-69
2021/03/13 01:30:41;;;;;;;53.45;21.48;;;;;;;;;;5013874;28;20133;-69
2021/03/13 01:33:07;;;;;;;30.73;12.93;;;;;;;;;;5013415;28;20053;-69
2021/03/13 01:35:34;;;;;;;18.48;7.30;;;;;;;;;;5013831;28;20101;-69
2021/03/13 01:38:00;;;;;;;12.15;5.10;;;;;;;;;;4995959;28;20513;-71
2021/03/13 01:40:26;;;;;;;14.27;5.18;;;;;;;;;;5013784;28;20109;-71
2021/03/13 01:42:52;;;;;;;9.57;4.38;;;;;;;;;;5013805;28;20029;-71
2021/03/13 01:45:20;;;;;;;4.68;2.35;;;;;;;;;;5013514;28;20029;-71
2021/03/13 01:47:46;;;;;;;4.13;2.30;;;;;;;;;;5014190;28;20022;-71
2021/03/13 01:50:13;;;;;;;3.67;2.77;;;;;;;;;;5014564;28;20018;-72
2021/03/13 01:52:40;;;;;;;3.70;1.75;;;;;;;;;;4996593;28;20014;-72
2021/03/13 01:55:07;;;;;;;3.63;1.80;;;;;;;;;;4996747;28;20029;-72
2021/03/13 01:57:33;;;;;;;3.03;1.38;;;;;;;;;;4996731;28;20069;-71
2021/03/13 01:59:59;;;;;;;3.47;1.50;;;;;;;;;;4996605;28;20113;-71
2021/03/13 02:02:25;;;;;;;3.50;2.55;;;;;;;;;;4996700;28;20482;-72
2021/03/13 02:04:52;;;;;;;2.45;1.60;;;;;;;;;;5014548;28;20044;-71
2021/03/13 02:07:24;;;;;;;5.07;2.25;;;;;;;;;;4997383;28;20025;-71
2021/03/13 02:09:59;;;;;;;2.60;2.40;;;;;;;;;;4995971;28;20025;-71
2021/03/13 02:12:30;;;;;;;1.80;1.45;;;;;;;;;;4995678;28;20471;-72
2021/03/13 02:15:12;;;;;;;5.13;2.70;;;;;;;;;;4995509;28;20091;-72
2021/03/13 02:17:38;;;;;;;2.80;2.13;;;;;;;;;;4995835;28;20463;-72
2021/03/13 02:20:37;;;;;;;2.00;1.67;;;;;;;;;;4995236;28;20057;-72
2021/03/13 02:23:04;;;;;;;3.63;2.03;;;;;;;;;;4962276;28;20026;-72
2021/03/13 02:25:36;;;;;;;4.28;1.98;;;;;;;;;;5016851;28;20033;-71
2021/03/13 02:28:05;;;;;;;4.90;2.72;;;;;;;;;;4998996;28;20033;-72
2021/03/13 02:30:32;;;;;;;2.47;1.38;;;;;;;;;;4998932;28;20053;-73
2021/03/13 02:33:16;;;;;;;5.47;1.75;;;;;;;;;;5016121;28;20399;-72
2021/03/13 02:35:44;;;;;;;4.38;1.70;;;;;;;;;;5016949;28;20033;-72
2021/03/13 02:38:14;;;;;;;2.00;1.48;;;;;;;;;;5016271;28;20375;-73
2021/03/13 02:40:42;;;;;;;2.55;1.80;;;;;;;;;;4998735;28;20045;-72
2021/03/13 02:43:09;;;;;;;2.53;1.40;;;;;;;;;;5016561;28;20014;-72
2021/03/13 02:45:35;;;;;;;;;;;;;;;;;;4999194;28;20049;-72
2021/03/13 02:48:04;;;;;;;2.08;1.88;;;;;;;;;;5015745;28;19948;-72
2021/03/13 02:50:31;;;;;;;2.30;1.67;;;;;;;;;;4998284;28;20471;-72
2021/03/13 02:52:57;;;;;;;2.55;2.35;;;;;;;;;;5016351;28;20124;-73
2021/03/13 02:55:24;;;;;;;3.83;2.25;;;;;;;;;;5015688;28;20032;-72
2021/03/13 02:57:52;;;;;;;3.17;2.05;;;;;;;;;;5015885;28;20489;-71
2021/03/13 03:00:20;;;;;;;5.18;2.53;;;;;;;;;;4999169;28;20018;-73
2021/03/13 03:02:49;;;;;;;2.25;2.03;;;;;;;;;;5015869;28;20024;-72
2021/03/13 03:05:19;;;;;;;2.83;1.65;;;;;;;;;;5016116;28;20096;-72
2021/03/13 03:07:46;;;;;;;4.43;2.20;;;;;;;;;;4997906;28;20141;-72
2021/03/13 03:10:14;;;;;;;3.15;2.88;;;;;;;;;;5016037;28;20072;-73
2021/03/13 03:12:42;;;;;;;4.90;2.03;;;;;;;;;;5016048;28;20101;-73
2021/03/13 03:15:08;;;;;;;;;;;;;;;;;;5015983;28;20026;-73
2021/03/13 03:17:34;;;;;;;3.30;2.33;;;;;;;;;;4998273;28;20031;-72
2021/03/13 03:20:01;;;;;;;3.00;1.98;;;;;;;;;;5015351;28;20073;-72
2021/03/13 03:22:27;;;;;;;3.33;2.83;;;;;;;;;;5015417;28;20473;-72
2021/03/13 03:24:54;;;;;;;5.28;3.33;;;;;;;;;;4998200;28;20449;-72
2021/03/13 03:27:21;;;;;;;4.40;2.15;;;;;;;;;;5015704;28;20494;-73
2021/03/13 03:29:47;;;;;;;2.72;2.40;;;;;;;;;;4994212;28;20074;-73
2021/03/13 03:32:13;;;;;;;22.15;11.93;;;;;;;;;;4994301;28;20015;-72
2021/03/13 03:34:39;;;;;;;21.73;12.18;;;;;;;;;;4994122;28;20022;-72
2021/03/13 03:37:06;;;;;;;9.07;5.00;;;;;;;;;;4994387;28;20049;-72
2021/03/13 03:39:32;;;;;;;6.55;5.28;;;;;;;;;;4995901;28;20019;-73
2021/03/13 03:41:59;;;;;;;33.35;20.17;;;;;;;;;;4996108;28;20034;-73
2021/03/13 03:44:27;;;;;;;24.58;14.60;;;;;;;;;;4994123;28;20113;-72
2021/03/13 03:46:59;;;;;;;34.30;20.90;;;;;;;;;;4995316;28;20352;-74
2021/03/13 03:49:26;;;;;;;5.07;3.65;;;;;;;;;;4994496;28;20014;-72
2021/03/13 03:51:54;;;;;;;8.50;6.18;;;;;;;;;;4993941;28;20041;-74
2021/03/13 03:54:21;;;;;;;15.15;10.82;;;;;;;;;;4994967;28;20113;-73
2021/03/13 03:56:48;;;;;;;11.00;8.45;;;;;;;;;;4993989;28;20037;-73
2021/03/13 03:59:15;;;;;;;23.42;12.68;;;;;;;;;;4994371;28;20038;-73
2021/03/13 04:01:41;;;;;;;;;;;;;;;;;;4994506;28;20025;-74
2021/03/13 04:04:08;;;;;;;5.40;4.10;;;;;;;;;;4975522;28;19902;-73
2021/03/13 04:06:35;;;;;;;4.95;3.88;;;;;;;;;;4978915;28;20026;-74
2021/03/13 04:09:02;;;;;;;5.55;4.53;;;;;;;;;;4989542;28;20023;-74
2021/03/13 04:11:29;;;;;;;12.85;7.80;;;;;;;;;;4978704;28;20023;-71
2021/03/13 04:13:57;;;;;;;6.30;4.25;;;;;;;;;;4992597;28;20375;-75
2021/03/13 04:16:24;;;;;;;10.10;6.15;;;;;;;;;;4994655;28;20022;-74
2021/03/13 04:18:50;;;;;;;4.75;4.18;;;;;;;;;;4993589;28;20376;-73
2021/03/13 04:21:17;;;;;;;4.88;4.07;;;;;;;;;;4992754;28;20038;-74
2021/03/13 04:23:45;;;;;;;6.97;4.88;;;;;;;;;;4991268;28;20026;-73
2021/03/13 04:26:11;;;;;;;6.35;4.53;;;;;;;;;;4989389;28;20463;-73
2021/03/13 04:28:37;;;;;;;9.52;7.72;;;;;;;;;;4990222;28;20054;-72
2021/03/13 04:31:04;;;;;;;12.43;9.80;;;;;;;;;;4993173;28;20041;-72
2021/03/13 04:33:31;;;;;;;8.15;6.68;;;;;;;;;;4987221;28;20049;-72
2021/03/13 04:35:57;;;;;;;13.95;10.20;;;;;;;;;;4990598;28;20055;-73
2021/03/13 04:38:25;;;;;;;10.05;7.20;;;;;;;;;;5002749;28;20049;-71
2021/03/13 04:40:51;;;;;;;11.40;8.10;;;;;;;;;;4992254;28;20010;-73
2021/03/13 04:43:19;;;;;;;8.93;5.35;;;;;;;;;;5005557;28;20490;-72
2021/03/13 04:45:45;;;;;;;12.18;7.88;;;;;;;;;;5007555;28;20014;-74
2021/03/13 04:48:12;;;;;;;9.57;6.55;;;;;;;;;;5009143;28;20076;-72
2021/03/13 04:50:38;;;;;;;6.07;5.47;;;;;;;;;;5005981;28;20095;-73
2021/03/13 04:53:05;;;;;;;12.32;7.30;;;;;;;;;;4992498;28;20036;-72
2021/03/13 04:55:31;;;;;;;8.27;6.20;;;;;;;;;;4990880;28;20041;-71
2021/03/13 04:57:57;;;;;;;10.40;8.00;;;;;;;;;;5008310;28;20072;-71
2021/03/13 05:00:23;;;;;;;11.27;6.75;;;;;;;;;;5013067;28;20033;-72
2021/03/13 05:02:50;;;;;;;9.55;7.20;;;;;;;;;;5014045;28;20104;-71
2021/03/13 05:05:16;;;;;;;9.90;6.63;;;;;;;;;;4996153;28;20021;-72
2021/03/13 05:07:42;;;;;;;15.15;8.27;;;;;;;;;;5011940;28;20025;-71
2021/03/13 05:10:09;;;;;;;20.38;12.10;;;;;;;;;;5011896;28;20451;-71
2021/03/13 05:12:35;;;;;;;24.73;14.63;;;;;;;;;;4994617;28;20021;-73
2021/03/13 05:15:02;;;;;;;24.08;14.90;;;;;;;;;;4994269;28;20100;-72
2021/03/13 05:17:28;;;;;;;21.07;9.40;;;;;;;;;;5011931;28;20109;-72
2021/03/13 05:19:54;;;;;;;19.65;8.70;;;;;;;;;;4994581;28;20348;-72
2021/03/13 05:22:20;;;;;;;11.50;7.57;;;;;;;;;;4995748;28;20022;-73
2021/03/13 05:24:46;;;;;;;13.00;8.85;;;;;;;;;;5013951;28;20030;-73
2021/03/13 05:27:12;;;;;;;18.85;11.73;;;;;;;;;;5013896;28;20022;-73
2021/03/13 05:29:38;;;;;;;17.90;10.57;;;;;;;;;;5013635;28;20046;-73
2021/03/13 05:32:05;;;;;;;18.13;11.57;;;;;;;;;;4997071;28;20015;-72
2021/03/13 05:34:31;;;;;;;19.17;13.23;;;;;;;;;;5013645;28;20065;-71
2021/03/13 05:36:57;;;;;;;17.90;13.90;;;;;;;;;;5013459;28;20033;-73
2021/03/13 05:39:23;;;;;;;19.48;13.90;;;;;;;;;;5014190;28;20022;-72
2021/03/13 05:41:51;;;;;;;14.90;10.10;;;;;;;;;;5013695;28;20010;-73
2021/03/13 05:44:17;;;;;;;16.30;10.88;;;;;;;;;;5013164;28;20368;-74
2021/03/13 05:46:44;;;;;;;13.30;10.10;;;;;;;;;;5013431;28;20363;-71
2021/03/13 05:49:11;;;;;;;14.40;10.75;;;;;;;;;;4995787;28;20024;-72
2021/03/13 05:51:38;;;;;;;10.88;8.48;;;;;;;;;;5013773;28;20033;-71
2021/03/13 05:54:07;;;;;;;15.25;10.23;;;;;;;;;;5013596;28;20057;-66
2021/03/13 05:56:34;;;;;;;13.48;10.23;;;;;;;;;;5015532;28;20490;-71
2021/03/13 05:59:02;;;;;;;11.35;9.57;;;;;;;;;;5000381;28;20525;-76
2021/03/13 06:01:28;;;;;;;13.52;9.05;;;;;;;;;;4999667;28;20359;-74
2021/03/13 06:03:55;;;;;;;16.20;10.00;;;;;;;;;;4999437;28;20026;-73
2021/03/13 06:06:22;;;;;;;38.05;28.17;;;;;;;;;;4999744;28;20030;-71
2021/03/13 06:08:48;;;;;;;37.75;26.30;;;;;;;;;;5017335;28;20399;-74
2021/03/13 06:11:16;;;;;;;36.57;23.57;;;;;;;;;;4999615;28;20026;-74
2021/03/13 06:13:43;;;;;;;27.05;18.90;;;;;;;;;;5016726;28;20025;-75
2021/03/13 06:16:09;;;;;;;30.30;19.27;;;;;;;;;;5016885;28;20057;-74
2021/03/13 06:18:56;;;;;;;33.58;21.35;;;;;;;;;;4999319;28;20092;-73
2021/03/13 06:21:39;;;;;;;26.60;13.63;;;;;;;;;;5017637;28;20350;-73
2021/03/13 06:24:08;;;;;;;42.97;16.02;;;;;;;;;;5017416;28;20024;-75
2021/03/13 06:27:10;;;;;;;16.98;11.38;;;;;;;;;;4999733;28;20026;-76
2021/03/13 06:29:36;;;;;;;15.05;8.80;;;;;;;;;;4918232;29;20093;-74
2021/03/13 06:32:11;;;;;;;12.68;7.72;;;;;;;;;;4997458;28;20058;-75
2021/03/13 06:34:37;;;;;;;10.77;7.57;;;;;;;;;;4999111;28;20029;-77
2021/03/13 06:37:22;;;;;;;18.13;9.77;;;;;;;;;;5017050;28;20506;-75
2021/03/13 06:39:48;;;;;;;5.35;4.68;;;;;;;;;;5016408;28;20049;-74
2021/03/13 06:42:24;;;;;;;22.98;13.07;;;;;;;;;;4998834;28;20113;-74
2021/03/13 06:45:01;;;;;;;27.10;14.23;;;;;;;;;;5016558;28;20087;-77
2021/03/13 06:47:34;;;;;;;17.42;11.38;;;;;;;;;;5001198;28;20018;-76
2021/03/13 06:50:18;;;;;;;18.83;8.98;;;;;;;;;;5016276;28;20021;-73
2021/03/13 06:52:47;;;;;;;11.48;7.82;;;;;;;;;;5016764;28;20022;-76
2021/03/13 06:55:31;;;;;;;18.35;6.70;;;;;;;;;;4999502;28;20050;-75
2021/03/13 06:58:12;;;;;;;6.07;3.65;;;;;;;;;;5000153;28;20047;-74
2021/03/13 07:00:39;;;;;;;6.63;4.97;;;;;;;;;;5017649;28;20018;-77
2021/03/13 07:03:06;;;;;;;7.53;5.97;;;;;;;;;;4998741;28;20018;-73
2021/03/13 07:05:32;;;;;;;16.02;11.02;;;;;;;;;;4998565;28;20386;-78
2021/03/13 07:07:59;;;;;;;9.13;5.65;;;;;;;;;;4998162;28;20049;-77
2021/03/13 07:10:28;;;;;;;7.65;6.25;;;;;;;;;;4998381;28;20033;-77
2021/03/13 07:12:55;;;;;;;16.73;11.15;;;;;;;;;;5000647;28;20033;-77
2021/03/13 07:15:22;;;;;;;13.48;9.85;;;;;;;;;;5016031;28;20451;-76
2021/03/13 07:17:51;;;;;;;7.70;5.75;;;;;;;;;;4998224;28;20060;-77
2021/03/13 07:20:25;;;;;;;7.95;5.50;;;;;;;;;;5001916;28;20052;-78
2021/03/13 07:22:53;;;;;;;13.68;6.68;;;;;;;;;;5016781;28;20037;-76
2021/03/13 07:25:23;;;;;;;7.55;5.40;;;;;;;;;;4998269;28;20029;-75
2021/03/13 07:27:59;;;;;;;15.23;9.57;;;;;;;;;;4997846;28;20014;-75
2021/03/13 07:30:26;;;;;;;14.38;8.80;;;;;;;;;;4994725;28;20046;-73
2021/03/13 07:32:59;;;;;;;7.97;7.10;;;;;;;;;;4994639;28;20027;-76
2021/03/13 07:35:28;;;;;;;27.60;18.80;;;;;;;;;;4994331;28;20042;-76
2021/03/13 07:37:55;;;;;;;13.25;8.70;;;;;;;;;;4995717;28;20367;-75
2021/03/13 07:40:22;;;;;;;21.05;14.18;;;;;;;;;;4994659;28;20026;-76
2021/03/13 07:42:48;;;;;;;11.60;8.30;;;;;;;;;;4994372;28;20108;-77
2021/03/13 07:45:15;;;;;;;11.43;6.93;;;;;;;;;;4995033;28;20045;-76
2021/03/13 07:47:42;;;;;;;11.10;7.32;;;;;;;;;;4994286;28;20097;-76
2021/03/13 07:50:17;;;;;;;18.70;13.75;;;;;;;;;;4994465;28;20459;-77
2021/03/13 07:52:44;;;;;;;21.65;10.20;;;;;;;;;;4994170;28;20463;-75
2021/03/13 07:55:14;;;;;;;17.58;14.13;;;;;;;;;;4993991;28;20030;-76
2021/03/13 07:57:48;;;;;;;13.40;9.00;;;;;;;;;;4994318;28;20018;-76
2021/03/13 08:00:14;;;;;;;17.13;11.52;;;;;;;;;;4994668;28;20022;-75
2021/03/13 08:02:42;;;;;;;8.95;8.00;;;;;;;;;;4993905;28;20105;-73
2021/03/13 08:05:09;;;;;;;8.15;6.07;;;;;;;;;;4993731;28;20037;-74
2021/03/13 08:07:53;;;;;;;18.30;15.73;;;;;;;;;;4995466;28;20526;-75
2021/03/13 08:10:38;;;;;;;15.32;11.27;;;;;;;;;;4993748;28;20023;-73
2021/03/13 08:13:04;;;;;;;24.25;12.75;;;;;;;;;;4994019;28;20101;-73
2021/03/13 08:15:33;;;;;;;11.60;9.90;;;;;;;;;;4993762;28;20022;-73
2021/03/13 08:18:00;;;;;;;7.45;6.13;;;;;;;;;;4993707;28;20493;-75
2021/03/13 08:20:30;;;;;;;10.77;7.15;;;;;;;;;;4993052;28;20117;-75
2021/03/13 08:23:08;;;;;;;25.77;16.88;;;;;;;;;;4994391;28;20022;-73
2021/03/13 08:25:35;;;;;;;19.67;12.27;;;;;;;;;;4993840;28;20526;-73
2021/03/13 08:28:01;;;;;;;13.20;7.55;;;;;;;;;;4993751;28;20022;-72
2021/03/13 08:30:29;;;;;;;12.63;8.43;;;;;;;;;;4993031;28;20046;-74
2021/03/13 08:33:03;;;;;;;12.93;9.02;;;;;;;;;;4993405;28;20065;-76
2021/03/13 08:35:42;;;;;;;12.15;6.85;;;;;;;;;;4993567;28;20460;-76
2021/03/13 08:38:09;;;;;;;12.60;7.30;;;;;;;;;;4993399;28;20467;-76
2021/03/13 08:40:41;;;;;;;17.42;10.20;;;;;;;;;;4993578;28;20460;-75
2021/03/13 08:43:26;;;;;;;12.55;8.15;;;;;;;;;;4994885;28;20058;-76
2021/03/13 08:45:52;;;;;;;8.95;6.07;;;;;;;;;;4993315;28;20062;-74
2021/03/13 08:48:38;;;;;;;14.32;9.27;;;;;;;;;;4993310;28;20026;-74
2021/03/13 08:51:17;;;;;;;12.13;7.20;;;;;;;;;;4993082;28;20117;-75
2021/03/13 08:53:43;;;;;;;35.92;20.77;;;;;;;;;;4993287;28;20038;-73
2021/03/13 08:56:28;;;;;;;12.68;6.55;;;;;;;;;;4994619;28;20387;-72
2021/03/13 08:58:54;;;;;;;5.90;4.13;;;;;;;;;;4993033;28;20022;-73
2021/03/13 09:01:22;;;;;;;4.43;3.85;;;;;;;;;;4994048;28;20045;-73
2021/03/13 09:03:49;;;;;;;17.25;9.30;;;;;;;;;;4993310;28;20026;-76
2021/03/13 09:06:17;;;;;;;11.13;6.85;;;;;;;;;;4992953;28;20045;-74
2021/03/13 09:08:43;;;;;;;;;;;;;;;;;;4994848;28;20080;-76
2021/03/13 09:11:09;;;;;;;7.32;5.43;;;;;;;;;;4995018;28;20289;-76
2021/03/13 09:13:35;;;;;;;4.65;2.88;;;;;;;;;;4994138;28;20018;-74
2021/03/13 09:16:15;;;;;;;3.70;2.90;;;;;;;;;;4994986;28;20392;-76
2021/03/13 09:18:50;;;;;;;3.17;2.88;;;;;;;;;;4992916;28;20022;-76
2021/03/13 09:21:36;;;;;;;5.45;4.88;;;;;;;;;;4993414;28;20109;-74
2021/03/13 09:24:03;;;;;;;8.13;5.93;;;;;;;;;;4994410;28;20026;-75
2021/03/13 09:26:29;;;;;;;4.85;3.75;;;;;;;;;;4991882;28;20019;-74
2021/03/13 09:28:55;;;;;;;5.10;4.60;;;;;;;;;;4997777;28;20116;-73
2021/03/13 09:31:21;;;;;;;4.03;3.40;;;;;;;;;;5015600;28;20029;-74
2021/03/13 09:33:47;;;;;;;3.50;3.20;;;;;;;;;;4999828;28;20041;-72
2021/03/13 09:36:14;;;;;;;3.42;3.13;;;;;;;;;;5017857;28;20018;-72
2021/03/13 09:38:53;;;;;;;3.90;3.33;;;;;;;;;;5000133;28;20018;-72
2021/03/13 09:41:19;;;;;;;13.65;9.20;;;;;;;;;;5017298;28;20029;-74
2021/03/13 09:43:46;;;;;;;6.85;6.22;;;;;;;;;;5017948;28;20063;-71
2021/03/13 09:46:16;;;;;;;5.85;5.10;;;;;;;;;;5017484;28;20022;-74
2021/03/13 09:48:42;;;;;;;3.83;3.47;;;;;;;;;;4999709;28;20028;-73
2021/03/13 09:51:08;;;;;;;4.55;4.03;;;;;;;;;;4999777;28;20108;-73
2021/03/13 09:53:34;;;;;;;5.85;3.95;;;;;;;;;;5017699;28;20034;-72
2021/03/13 09:56:00;;;;;;;5.30;3.67;;;;;;;;;;4995986;28;20358;-72
2021/03/13 09:58:26;;;;;;;8.25;6.53;;;;;;;;;;5007352;28;20222;-73
2021/03/13 10:00:53;;;;;;;6.63;6.03;;;;;;;;;;4988800;28;20014;-70
2021/03/13 10:03:21;;;;;;;9.57;6.70;;;;;;;;;;5005288;28;20014;-70
2021/03/13 10:06:05;;;;;;;12.77;8.30;;;;;;;;;;4988721;28;20026;-68
2021/03/13 10:08:35;;;;;;;9.57;6.40;;;;;;;;;;5008158;28;20020;-69
2021/03/13 10:11:02;;;;;;;13.98;8.73;;;;;;;;;;5007303;28;20358;-69
2021/03/13 10:13:29;;;;;;;11.80;7.55;;;;;;;;;;4989415;28;20050;-70
2021/03/13 10:15:56;;;;;;;12.52;9.38;;;;;;;;;;5006502;28;20093;-71
2021/03/13 10:18:25;;;;;;;8.20;5.82;;;;;;;;;;5006855;28;20447;-69
2021/03/13 10:20:53;;;;;;;8.95;5.78;;;;;;;;;;5006118;28;20387;-72
2021/03/13 10:23:19;;;;;;;;;;;;;;;;;;5007212;28;20490;-69
2021/03/13 10:25:54;;;;;;;18.92;11.57;;;;;;;;;;4979802;28;19901;-72
2021/03/13 10:28:20;;;;;;;17.02;10.93;;;;;;;;;;4979597;28;20025;-68
2021/03/13 10:30:47;;;;;;;15.73;9.48;;;;;;;;;;4987432;28;20068;-71
2021/03/13 10:33:13;;;;;;;8.38;5.22;;;;;;;;;;5016596;28;20030;-71
2021/03/13 10:35:40;;;;;;;15.48;9.80;;;;;;;;;;5016363;28;20502;-70
2021/03/13 10:38:09;;;;;;;22.48;12.80;;;;;;;;;;4999584;28;20025;-70
2021/03/13 10:40:42;;;;;;;8.38;6.22;;;;;;;;;;4998739;28;20047;-69
2021/03/13 10:43:11;;;;;;;17.35;11.88;;;;;;;;;;5015659;28;20080;-71
2021/03/13 10:45:37;;;;;;;12.13;8.75;;;;;;;;;;5015992;28;20159;-72
2021/03/13 10:48:07;;;;;;;21.17;10.85;;;;;;;;;;5016192;28;20092;-69
2021/03/13 10:50:37;;;;;;;13.30;9.00;;;;;;;;;;4998881;28;20026;-70
2021/03/13 10:53:25;;;;;;;14.93;8.30;;;;;;;;;;4998689;28;20097;-70
2021/03/13 10:55:54;;;;;;;5.65;5.15;;;;;;;;;;5016395;28;20040;-67
2021/03/13 10:58:27;;;;;;;4.88;4.38;;;;;;;;;;5016282;28;20470;-67
2021/03/13 11:00:54;;;;;;;8.68;6.07;;;;;;;;;;5015485;28;20036;-69
2021/03/13 11:03:20;;;;;;;4.40;3.60;;;;;;;;;;5016473;28;20091;-67
2021/03/13 11:05:51;;;;;;;8.82;5.57;;;;;;;;;;4998533;28;20026;-68
2021/03/13 11:08:21;;;;;;;6.22;3.28;;;;;;;;;;4998247;28;20033;-68
2021/03/13 11:10:48;;;;;;;11.98;7.93;;;;;;;;;;4998396;28;20541;-67
2021/03/13 11:13:14;;;;;;;25.63;16.77;;;;;;;;;;5016035;28;20026;-66
2021/03/13 11:15:40;;;;;;;10.98;9.20;;;;;;;;;;5015319;28;20057;-68
2021/03/13 11:18:06;;;;;;;7.30;6.13;;;;;;;;;;5015638;28;20022;-68
2021/03/13 11:20:33;;;;;;;4.43;3.38;;;;;;;;;;5016459;28;20105;-66
2021/03/13 11:22:59;;;;;;;8.75;5.50;;;;;;;;;;5015565;28;20018;-67
2021/03/13 11:25:25;;;;;;;5.43;3.72;;;;;;;;;;5016047;28;20139;-68
2021/03/13 11:27:52;;;;;;;14.93;10.80;;;;;;;;;;5015786;28;20040;-71
2021/03/13 11:30:18;;;;;;;2.83;2.60;;;;;;;;;;5015239;28;20368;-70
2021/03/13 11:32:44;;;;;;;1.93;1.77;;;;;;;;;;5011836;28;20065;-66
2021/03/13 11:35:11;;;;;;;2.95;2.75;;;;;;;;;;5015065;28;20022;-68
2021/03/13 11:37:37;;;;;;;3.27;2.67;;;;;;;;;;5015316;28;20032;-67
2021/03/13 11:40:05;;;;;;;5.43;1.92;;;;;;;;;;5014513;28;20022;-62
2021/03/13 11:42:31;;;;;;;6.20;3.50;;;;;;;;;;5015117;28;20025;-68
2021/03/13 11:44:58;;;;;;;4.75;3.85;;;;;;;;;;5015232;28;20053;-66
2021/03/13 11:47:25;;;;;;;6.47;3.20;;;;;;;;;;5015330;28;20025;-66
2021/03/13 11:49:51;;;;;;;3.25;1.63;;;;;;;;;;5014925;28;20075;-67
2021/03/13 11:52:18;;;;;;;7.10;3.45;;;;;;;;;;5015138;28;20022;-66
2021/03/13 11:54:45;;;;;;;6.28;4.55;;;;;;;;;;5014641;28;20033;-68
2021/03/13 11:57:11;;;;;;;5.28;3.10;;;;;;;;;;5014582;28;20375;-66
2021/03/13 11:59:38;;;;;;;10.00;5.40;;;;;;;;;;5015523;28;20405;-67
2021/03/13 12:02:04;;;;;;;9.17;7.20;;;;;;;;;;5014542;28;20467;-69
2021/03/13 12:04:30;;;;;;;4.78;3.60;;;;;;;;;;5014474;28;20463;-71
2021/03/13 12:06:56;;;;;;;5.85;4.75;;;;;;;;;;4997273;28;20030;-64
2021/03/13 12:09:22;;;;;;;24.08;14.43;;;;;;;;;;5014503;28;20089;-60
2021/03/13 12:11:49;;;;;;;11.82;7.30;;;;;;;;;;5014618;28;20347;-64
2021/03/13 12:14:15;;;;;;;14.93;10.25;;;;;;;;;;5014433;28;20481;-63
2021/03/13 12:16:41;;;;;;;11.40;6.55;;;;;;;;;;5012790;28;20022;-63
2021/03/13 12:19:07;;;;;;;17.00;9.27;;;;;;;;;;5012667;28;20022;-61
2021/03/13 12:21:33;;;;;;;13.57;8.88;;;;;;;;;;5014683;28;20129;-65
2021/03/13 12:24:00;;;;;;;10.15;6.75;;;;;;;;;;5014482;28;20014;-61
2021/03/13 12:26:26;;;;;;;22.88;15.85;;;;;;;;;;5013864;28;20034;-65
2021/03/13 12:28:52;;;;;;;29.60;20.52;;;;;;;;;;5013890;28;20042;-62
2021/03/13 12:31:19;;;;;;;12.60;9.93;;;;;;;;;;5014017;28;20026;-61
2021/03/13 12:33:45;;;;;;;9.40;5.03;;;;;;;;;;5014402;28;20490;-61
2021/03/13 12:36:11;;;;;;;23.73;14.45;;;;;;;;;;5014527;28;20274;-63
2021/03/13 12:38:38;;;;;;;17.10;11.30;;;;;;;;;;5013965;28;20072;-62
2021/03/13 12:41:04;;;;;;;23.63;14.68;;;;;;;;;;5014368;28;20063;-62
2021/03/13 12:43:31;;;;;;;16.70;8.88;;;;;;;;;;5014049;28;20406;-63
2021/03/13 12:45:57;;;;;;;12.48;9.40;;;;;;;;;;5014284;28;20025;-62
2021/03/13 12:48:23;;;;;;;14.18;9.85;;;;;;;;;;5013461;28;20045;-62
2021/03/13 12:50:51;;;;;;;8.57;6.32;;;;;;;;;;5013913;28;20076;-63
2021/03/13 12:53:17;;;;;;;6.63;4.80;;;;;;;;;;5013882;28;20029;-62
2021/03/13 12:55:44;;;;;;;8.00;5.68;;;;;;;;;;5013450;28;20510;-62
2021/03/13 12:58:10;;;;;;;8.15;6.25;;;;;;;;;;5002318;28;20458;-63
2021/03/13 13:00:36;;;;;;;9.10;3.28;;;;;;;;;;4983926;28;20477;-64
2021/03/13 13:03:03;;;;;;;6.78;4.63;;;;;;;;;;5002315;28;20093;-62
2021/03/13 13:05:29;;;;;;;8.85;4.22;;;;;;;;;;5006856;28;20024;-69
2021/03/13 13:07:56;;;;;;;7.37;4.83;;;;;;;;;;4986802;28;20018;-66
2021/03/13 13:10:22;;;;;;;5.85;1.90;;;;;;;;;;5003010;28;20026;-67
2021/03/13 13:12:48;;;;;;;2.47;1.45;;;;;;;;;;5002176;28;20014;-69
2021/03/13 13:15:14;;;;;;;4.23;3.70;;;;;;;;;;5000934;28;20031;-66
2021/03/13 13:17:41;;;;;;;8.75;6.40;;;;;;;;;;5003512;28;20105;-63
2021/03/13 13:20:10;;;;;;;7.10;3.72;;;;;;;;;;5003136;28;20028;-65
2021/03/13 13:22:37;;;;;;;7.45;2.83;;;;;;;;;;5003748;28;20018;-67
2021/03/13 13:25:04;;;;;;;8.80;6.13;;;;;;;;;;4984054;28;20018;-65
2021/03/13 13:27:30;;;;;;;3.75;3.10;;;;;;;;;;5001376;28;20252;-66
2021/03/13 13:29:56;;;;;;;4.97;3.45;;;;;;;;;;4973380;28;20081;-64
2021/03/13 13:32:23;;;;;;;8.52;4.22;;;;;;;;;;5010529;28;20079;-68
2021/03/13 13:34:49;;;;;;;4.18;3.80;;;;;;;;;;5013004;28;20022;-66
2021/03/13 13:37:16;;;;;;;5.68;4.53;;;;;;;;;;4996156;28;20030;-66
2021/03/13 13:39:42;;;;;;;5.10;3.47;;;;;;;;;;5013144;28;20362;-66
2021/03/13 13:42:08;;;;;;;7.68;5.43;;;;;;;;;;5013494;28;20026;-67
2021/03/13 13:44:35;;;;;;;15.00;9.80;;;;;;;;;;5013458;28;20570;-67
2021/03/13 13:47:01;;;;;;;15.88;9.65;;;;;;;;;;5013568;28;20458;-66
2021/03/13 13:49:27;;;;;;;31.40;17.23;;;;;;;;;;5012846;28;20022;-67
2021/03/13 13:51:53;;;;;;;6.18;4.75;;;;;;;;;;5013265;28;20089;-67
2021/03/13 13:54:19;;;;;;;11.77;8.38;;;;;;;;;;5013541;28;20057;-65
2021/03/13 13:56:45;;;;;;;7.32;6.63;;;;;;;;;;5013023;28;20033;-65
2021/03/13 13:59:11;;;;;;;6.82;6.13;;;;;;;;;;5013850;28;20022;-66
2021/03/13 14:01:37;;;;;;;4.15;3.55;;;;;;;;;;5009659;28;20071;-67
2021/03/13 14:04:04;;;;;;;4.03;3.72;;;;;;;;;;5003070;28;20021;-66
2021/03/13 14:06:30;;;;;;;13.10;7.77;;;;;;;;;;4984678;28;20018;-66
2021/03/13 14:08:56;;;;;;;11.25;7.00;;;;;;;;;;5001376;28;20030;-66
2021/03/13 14:11:23;;;;;;;30.15;17.98;;;;;;;;;;5005243;28;20025;-66
2021/03/13 14:13:49;;;;;;;11.50;6.80;;;;;;;;;;4984370;28;20054;-67
2021/03/13 14:16:16;;;;;;;4.20;3.88;;;;;;;;;;5001592;28;20018;-65
2021/03/13 14:18:42;;;;;;;20.33;10.23;;;;;;;;;;5009932;28;20017;-65
2021/03/13 14:21:08;;;;;;;19.63;12.27;;;;;;;;;;5016901;28;20030;-67
2021/03/13 14:23:35;;;;;;;3.53;3.08;;;;;;;;;;5016308;28;20017;-65
2021/03/13 14:26:01;;;;;;;8.95;6.25;;;;;;;;;;5017369;28;20021;-65
2021/03/13 14:28:27;;;;;;;16.02;9.18;;;;;;;;;;5016502;28;20017;-65
2021/03/13 14:30:53;;;;;;;17.30;10.90;;;;;;;;;;4998871;28;20025;-68
2021/03/13 14:33:19;;;;;;;14.18;7.78;;;;;;;;;;5016715;28;20025;-66
2021/03/13 14:35:45;;;;;;;14.80;8.55;;;;;;;;;;5015966;28;20069;-66
2021/03/13 14:38:12;;;;;;;34.45;17.08;;;;;;;;;;5016035;28;20467;-68
2021/03/13 14:40:38;;;;;;;32.05;17.65;;;;;;;;;;5016358;28;20037;-66